createdAt,value
2017-08-01T00:00:26.136Z,19.40
2017-08-01T00:02:59.829Z,19.30
2017-08-01T00:05:34.505Z,19.30
2017-08-01T00:08:13.800Z,19.30
2017-08-01T00:10:49.003Z,19.40
2017-08-01T00:13:23.187Z,19.40
2017-08-01T00:15:57.106Z,19.40
2017-08-01T00:18:31.713Z,19.20
2017-08-01T00:21:05.779Z,19.30
2017-08-01T00:23:39.793Z,19.30
2017-08-01T00:26:13.764Z,19.10
2017-08-01T00:28:48.287Z,19.40
2017-08-01T00:31:22.339Z,19.40
2017-08-01T00:33:57.090Z,19.30
2017-08-01T00:36:31.949Z,19.30
2017-08-01T00:39:06.083Z,19.40
2017-08-01T00:41:39.831Z,19.40
2017-08-01T00:44:13.721Z,19.30
2017-08-01T00:46:48.677Z,19.30
2017-08-01T00:49:22.620Z,19.10
2017-08-01T00:51:56.648Z,19.10
2017-08-01T00:54:30.410Z,19.10
2017-08-01T00:57:06.330Z,18.90
2017-08-01T00:59:41.306Z,18.90
2017-08-01T01:02:16.018Z,18.90
2017-08-01T01:04:50.757Z,18.90
2017-08-01T01:07:25.342Z,18.90
2017-08-01T01:10:00.028Z,18.80
2017-08-01T01:12:34.732Z,18.90
2017-08-01T01:15:10.390Z,18.90
2017-08-01T01:17:44.183Z,19.00
2017-08-01T01:20:18.058Z,19.10
2017-08-01T01:22:52.784Z,19.00
2017-08-01T01:25:27.869Z,18.90
2017-08-01T01:28:01.838Z,18.90
2017-08-01T01:30:36.391Z,18.90
2017-08-01T01:33:10.182Z,19.00
2017-08-01T01:35:46.397Z,18.90
2017-08-01T01:38:20.265Z,18.90
2017-08-01T01:40:54.359Z,19.00
2017-08-01T01:43:28.233Z,18.90
2017-08-01T01:46:02.098Z,18.90
2017-08-01T01:48:36.177Z,18.80
2017-08-01T01:51:10.229Z,18.80
2017-08-01T01:53:44.766Z,19.00
2017-08-01T01:56:18.559Z,18.90
2017-08-01T01:58:52.639Z,19.00
2017-08-01T02:01:26.617Z,19.20
2017-08-01T02:04:01.291Z,19.30
2017-08-01T02:06:36.325Z,19.30
2017-08-01T02:09:13.040Z,19.50
2017-08-01T02:11:47.940Z,19.50
2017-08-01T02:14:22.567Z,19.70
2017-08-01T02:16:56.442Z,19.70
2017-08-01T02:19:30.263Z,19.80
2017-08-01T02:22:04.172Z,19.90
2017-08-01T02:24:38.208Z,19.70
2017-08-01T02:27:12.214Z,19.60
2017-08-01T02:29:46.084Z,19.40
2017-08-01T02:32:20.674Z,19.40
2017-08-01T02:34:54.666Z,19.80
2017-08-01T02:37:28.772Z,19.80
2017-08-01T02:40:02.665Z,19.80
2017-08-01T02:42:36.522Z,19.40
2017-08-01T02:45:10.459Z,19.30
2017-08-01T02:47:45.174Z,19.30
2017-08-01T02:50:18.944Z,19.30
2017-08-01T02:52:53.600Z,20.10
2017-08-01T02:55:28.117Z,20.00
2017-08-01T02:58:02.615Z,20.30
2017-08-01T03:00:37.273Z,21.30
2017-08-01T03:03:12.398Z,21.00
2017-08-01T03:05:46.480Z,21.00
2017-08-01T03:08:20.300Z,21.30
2017-08-01T03:10:54.258Z,21.50
2017-08-01T03:13:28.619Z,21.60
2017-08-01T03:16:02.502Z,22.30
2017-08-01T03:18:36.377Z,21.80
2017-08-01T03:21:10.237Z,21.70
2017-08-01T03:23:44.090Z,22.30
2017-08-01T03:26:19.113Z,22.30
2017-08-01T03:28:53.011Z,22.10
2017-08-01T03:31:27.048Z,22.40
2017-08-01T03:34:01.029Z,22.20
2017-08-01T03:36:34.912Z,22.20
2017-08-01T03:39:08.878Z,22.40
2017-08-01T03:41:43.118Z,22.40
2017-08-01T03:44:16.951Z,22.40
2017-08-01T03:46:52.056Z,22.00
2017-08-01T03:49:26.074Z,22.50
2017-08-01T03:52:00.196Z,22.50
2017-08-01T03:54:34.103Z,22.10
2017-08-01T03:57:08.904Z,22.00
2017-08-01T03:59:42.955Z,22.30
2017-08-01T04:02:16.896Z,22.20
2017-08-01T04:04:50.976Z,22.20
2017-08-01T04:07:25.055Z,22.30
2017-08-01T04:10:02.377Z,22.00
2017-08-01T04:12:36.244Z,22.00
2017-08-01T04:15:10.291Z,21.70
2017-08-01T04:17:44.750Z,21.20
2017-08-01T04:20:18.725Z,21.20
2017-08-01T04:22:52.684Z,21.00
2017-08-01T04:25:26.512Z,20.90
2017-08-01T04:28:00.277Z,20.80
2017-08-01T04:30:34.813Z,20.60
2017-08-01T04:33:08.566Z,20.60
2017-08-01T04:35:43.336Z,20.50
2017-08-01T04:38:17.361Z,20.50
2017-08-01T04:40:51.273Z,20.40
2017-08-01T04:43:25.184Z,20.40
2017-08-01T04:46:00.910Z,20.40
2017-08-01T04:48:38.185Z,20.30
2017-08-01T04:51:15.507Z,20.30
2017-08-01T04:53:51.876Z,20.30
2017-08-01T04:56:34.621Z,20.30
2017-08-01T04:59:11.448Z,20.20
2017-08-01T05:01:47.300Z,20.20
2017-08-01T05:04:22.987Z,20.20
2017-08-01T05:06:57.703Z,20.20
2017-08-01T05:12:16.446Z,20.20
2017-08-01T05:14:50.979Z,20.20
2017-08-01T05:17:24.885Z,20.20
2017-08-01T05:19:58.956Z,20.20
2017-08-01T05:22:32.633Z,20.30
2017-08-01T05:25:07.482Z,20.40
2017-08-01T05:27:41.415Z,20.40
2017-08-01T05:30:15.278Z,20.40
2017-08-01T05:32:49.154Z,20.40
2017-08-01T05:35:22.984Z,20.50
2017-08-01T05:37:57.621Z,20.50
2017-08-01T05:40:31.478Z,20.50
2017-08-01T05:43:06.025Z,20.70
2017-08-01T05:45:40.912Z,20.80
2017-08-01T05:48:14.875Z,20.70
2017-08-01T05:50:49.035Z,20.80
2017-08-01T05:53:22.732Z,20.80
2017-08-01T05:55:56.670Z,20.80
2017-08-01T05:58:31.193Z,20.90
2017-08-01T06:01:04.973Z,20.90
2017-08-01T06:03:38.826Z,21.00
2017-08-01T06:06:13.579Z,21.10
2017-08-01T06:08:48.463Z,21.10
2017-08-01T06:11:31.279Z,21.30
2017-08-01T06:14:05.842Z,21.40
2017-08-01T06:16:39.873Z,21.40
2017-08-01T06:19:13.721Z,21.40
2017-08-01T06:21:47.504Z,21.50
2017-08-01T06:24:22.182Z,21.80
2017-08-01T06:26:56.037Z,21.80
2017-08-01T06:29:30.003Z,21.90
2017-08-01T06:32:03.931Z,21.90
2017-08-01T06:34:38.247Z,22.10
2017-08-01T06:37:12.851Z,22.20
2017-08-01T06:39:46.509Z,22.30
2017-08-01T06:42:21.214Z,22.20
2017-08-01T06:44:55.072Z,22.20
2017-08-01T06:47:29.692Z,22.40
2017-08-01T06:50:03.577Z,22.40
2017-08-01T06:52:37.288Z,22.50
2017-08-01T06:55:11.825Z,22.60
2017-08-01T06:57:45.842Z,22.60
2017-08-01T07:00:20.196Z,22.70
2017-08-01T07:02:54.741Z,22.80
2017-08-01T07:05:28.686Z,22.80
2017-08-01T07:08:02.818Z,22.80
2017-08-01T07:10:36.585Z,22.80
2017-08-01T07:13:11.644Z,22.90
2017-08-01T07:15:45.403Z,23.00
2017-08-01T07:18:19.294Z,23.20
2017-08-01T07:20:53.095Z,23.20
2017-08-01T07:23:27.058Z,23.30
2017-08-01T07:26:00.943Z,23.50
2017-08-01T07:28:34.857Z,23.70
2017-08-01T07:31:08.638Z,23.70
2017-08-01T07:33:42.516Z,23.80
2017-08-01T07:36:20.376Z,23.90
2017-08-01T07:38:54.343Z,23.90
2017-08-01T07:41:28.310Z,24.00
2017-08-01T07:44:02.209Z,24.10
2017-08-01T07:46:36.224Z,24.30
2017-08-01T07:49:10.480Z,24.40
2017-08-01T07:51:44.207Z,24.50
2017-08-01T07:54:18.116Z,24.50
2017-08-01T07:56:52.339Z,24.70
2017-08-01T07:59:27.156Z,24.80
2017-08-01T08:02:00.853Z,24.80
2017-08-01T08:04:35.376Z,25.00
2017-08-01T08:07:09.155Z,24.90
2017-08-01T08:09:42.998Z,25.20
2017-08-01T08:12:16.754Z,25.30
2017-08-01T08:14:53.246Z,25.30
2017-08-01T08:17:27.650Z,25.30
2017-08-01T08:22:47.958Z,25.60
2017-08-01T08:25:24.260Z,25.60
2017-08-01T08:27:58.427Z,25.80
2017-08-01T08:30:32.148Z,25.80
2017-08-01T08:33:06.044Z,26.00
2017-08-01T08:35:39.964Z,26.00
2017-08-01T08:38:14.026Z,25.90
2017-08-01T08:40:47.841Z,26.00
2017-08-01T08:43:22.327Z,26.20
2017-08-01T08:45:56.888Z,26.20
2017-08-01T08:48:30.789Z,26.40
2017-08-01T08:51:04.751Z,26.60
2017-08-01T08:53:38.869Z,26.60
2017-08-01T08:56:12.806Z,26.60
2017-08-01T08:58:46.828Z,26.80
2017-08-01T09:01:20.584Z,26.80
2017-08-01T09:03:54.394Z,26.90
2017-08-01T09:06:29.106Z,27.10
2017-08-01T09:09:03.012Z,27.00
2017-08-01T09:11:37.051Z,27.00
2017-08-01T09:14:10.872Z,26.90
2017-08-01T09:16:44.507Z,27.10
2017-08-01T09:19:18.589Z,27.00
2017-08-01T09:21:53.066Z,27.00
2017-08-01T09:24:27.103Z,27.20
2017-08-01T09:27:01.718Z,27.40
2017-08-01T09:29:35.537Z,27.40
2017-08-01T09:32:10.639Z,27.60
2017-08-01T09:34:44.614Z,27.70
2017-08-01T09:37:18.509Z,27.60
2017-08-01T09:39:52.955Z,27.60
2017-08-01T09:42:27.602Z,28.00
2017-08-01T09:45:02.234Z,28.00
2017-08-01T09:47:37.659Z,28.00
2017-08-01T09:50:11.485Z,28.00
2017-08-01T09:52:45.432Z,28.00
2017-08-01T09:55:19.305Z,28.10
2017-08-01T09:57:53.217Z,28.10
2017-08-01T10:00:27.728Z,28.50
2017-08-01T10:03:01.536Z,28.50
2017-08-01T10:05:35.286Z,28.60
2017-08-01T10:08:09.091Z,28.70
2017-08-01T10:10:42.988Z,28.80
2017-08-01T10:13:16.947Z,28.80
2017-08-01T10:15:50.830Z,28.80
2017-08-01T10:18:25.544Z,29.00
2017-08-01T10:20:59.258Z,29.00
2017-08-01T10:23:33.201Z,29.40
2017-08-01T10:26:06.932Z,29.30
2017-08-01T10:28:41.445Z,29.30
2017-08-01T10:31:15.339Z,29.40
2017-08-01T10:33:49.183Z,29.30
2017-08-01T10:36:23.652Z,29.40
2017-08-01T10:38:57.901Z,29.40
2017-08-01T10:41:31.886Z,29.50
2017-08-01T10:44:05.851Z,30.00
2017-08-01T10:46:40.504Z,30.10
2017-08-01T10:49:14.499Z,30.00
2017-08-01T10:51:48.653Z,29.80
2017-08-01T10:54:22.624Z,29.80
2017-08-01T10:56:56.462Z,29.80
2017-08-01T10:59:31.106Z,30.00
2017-08-01T11:02:04.978Z,30.30
2017-08-01T11:04:39.475Z,30.10
2017-08-01T11:07:13.487Z,29.90
2017-08-01T11:09:48.119Z,30.00
2017-08-01T11:12:21.920Z,30.20
2017-08-01T11:14:55.680Z,30.30
2017-08-01T11:17:29.627Z,30.40
2017-08-01T11:20:03.484Z,30.80
2017-08-01T11:22:37.411Z,30.80
2017-08-01T11:25:11.201Z,30.80
2017-08-01T11:27:45.838Z,30.80
2017-08-01T11:30:20.502Z,30.80
2017-08-01T11:32:55.600Z,30.90
2017-08-01T11:35:29.781Z,30.80
2017-08-01T11:38:03.521Z,31.20
2017-08-01T11:40:37.519Z,31.30
2017-08-01T11:43:11.375Z,31.40
2017-08-01T11:45:46.079Z,31.60
2017-08-01T11:48:19.712Z,31.60
2017-08-01T11:50:54.583Z,31.70
2017-08-01T11:53:28.372Z,31.70
2017-08-01T11:56:02.135Z,31.90
2017-08-01T11:58:35.926Z,31.70
2017-08-01T12:01:09.703Z,31.60
2017-08-01T12:03:44.908Z,31.50
2017-08-01T12:06:18.688Z,31.40
2017-08-01T12:08:52.573Z,31.40
2017-08-01T12:11:27.061Z,31.60
2017-08-01T12:14:03.185Z,31.50
2017-08-01T12:16:38.814Z,31.60
2017-08-01T12:19:13.672Z,31.60
2017-08-01T12:21:48.650Z,31.80
2017-08-01T12:24:23.598Z,32.00
2017-08-01T12:26:57.399Z,31.90
2017-08-01T12:29:31.468Z,31.80
2017-08-01T12:32:06.204Z,32.00
2017-08-01T12:34:44.701Z,32.00
2017-08-01T12:37:20.867Z,32.00
2017-08-01T12:39:55.037Z,32.20
2017-08-01T12:42:30.232Z,32.30
2017-08-01T12:45:08.428Z,32.30
2017-08-01T12:47:42.487Z,32.20
2017-08-01T12:50:17.213Z,32.30
2017-08-01T12:52:52.047Z,32.30
2017-08-01T12:55:25.952Z,32.30
2017-08-01T12:58:00.531Z,32.40
2017-08-01T13:00:34.486Z,32.50
2017-08-01T13:03:10.105Z,32.60
2017-08-01T13:05:44.275Z,32.60
2017-08-01T13:08:18.885Z,32.60
2017-08-01T13:10:55.481Z,32.70
2017-08-01T13:13:29.485Z,32.70
2017-08-01T13:16:03.323Z,32.90
2017-08-01T13:18:39.472Z,32.80
2017-08-01T13:21:15.550Z,32.80
2017-08-01T13:23:50.357Z,32.80
2017-08-01T13:26:25.421Z,32.90
2017-08-01T13:29:00.308Z,32.90
2017-08-01T13:31:35.482Z,32.90
2017-08-01T13:34:09.257Z,32.90
2017-08-01T13:36:43.592Z,32.90
2017-08-01T13:39:18.062Z,33.10
2017-08-01T13:41:52.858Z,33.00
2017-08-01T13:44:27.595Z,33.00
2017-08-01T13:47:03.922Z,32.90
2017-08-01T13:49:38.066Z,32.90
2017-08-01T13:52:15.092Z,33.10
2017-08-01T13:54:49.962Z,33.10
2017-08-01T13:57:23.861Z,32.90
2017-08-01T13:59:58.117Z,32.90
2017-08-01T14:02:33.197Z,33.00
2017-08-01T14:05:07.266Z,33.30
2017-08-01T14:07:41.087Z,33.30
2017-08-01T14:10:14.714Z,33.10
2017-08-01T14:12:49.128Z,33.20
2017-08-01T14:15:22.913Z,33.30
2017-08-01T14:17:56.862Z,33.00
2017-08-01T14:20:30.882Z,33.00
2017-08-01T14:23:04.727Z,32.90
2017-08-01T14:25:39.927Z,33.00
2017-08-01T14:28:15.092Z,33.00
2017-08-01T14:30:48.977Z,33.10
2017-08-01T14:33:24.328Z,33.00
2017-08-01T14:35:59.310Z,33.00
2017-08-01T14:38:33.411Z,33.00
2017-08-01T14:41:08.202Z,33.00
2017-08-01T14:43:42.157Z,33.00
2017-08-01T14:46:16.918Z,32.90
2017-08-01T14:48:50.707Z,33.10
2017-08-01T14:51:24.768Z,33.10
2017-08-01T14:53:59.572Z,32.80
2017-08-01T14:56:33.415Z,32.90
2017-08-01T14:59:10.934Z,33.00
2017-08-01T15:01:46.142Z,32.80
2017-08-01T15:04:21.367Z,32.90
2017-08-01T15:06:55.131Z,32.90
2017-08-01T15:09:30.213Z,32.90
2017-08-01T15:12:04.272Z,32.90
2017-08-01T15:14:38.296Z,32.90
2017-08-01T15:17:12.384Z,32.90
2017-08-01T15:19:47.574Z,32.90
2017-08-01T15:22:21.520Z,32.90
2017-08-01T15:24:56.911Z,32.90
2017-08-01T15:27:30.900Z,32.90
2017-08-01T15:30:06.812Z,33.00
2017-08-01T15:32:41.773Z,33.10
2017-08-01T15:35:15.609Z,33.10
2017-08-01T15:37:49.414Z,33.10
2017-08-01T15:40:23.460Z,32.90
2017-08-01T15:42:58.738Z,32.80
2017-08-01T15:45:32.680Z,32.70
2017-08-01T15:48:06.625Z,32.80
2017-08-01T15:50:41.487Z,32.60
2017-08-01T15:53:16.287Z,32.60
2017-08-01T15:55:50.025Z,32.60
2017-08-01T15:58:24.000Z,32.60
2017-08-01T16:00:58.545Z,32.60
2017-08-01T16:03:33.826Z,32.50
2017-08-01T16:06:07.775Z,32.70
2017-08-01T16:08:42.409Z,32.60
2017-08-01T16:11:16.429Z,32.80
2017-08-01T16:13:51.016Z,32.90
2017-08-01T16:16:24.963Z,33.00
2017-08-01T16:18:59.682Z,33.00
2017-08-01T16:21:33.597Z,32.70
2017-08-01T16:24:09.172Z,32.90
2017-08-01T16:26:43.240Z,32.90
2017-08-01T16:29:18.427Z,32.70
2017-08-01T16:31:53.956Z,32.60
2017-08-01T16:34:28.895Z,32.80
2017-08-01T16:37:02.768Z,32.80
2017-08-01T16:39:38.344Z,32.80
2017-08-01T16:42:13.262Z,32.70
2017-08-01T16:44:47.255Z,32.80
2017-08-01T16:47:21.874Z,32.90
2017-08-01T16:49:56.457Z,32.90
2017-08-01T16:52:30.545Z,32.80
2017-08-01T16:55:05.518Z,32.60
2017-08-01T16:57:39.627Z,32.50
2017-08-01T17:00:13.739Z,32.60
2017-08-01T17:02:47.769Z,32.50
2017-08-01T17:05:21.799Z,32.40
2017-08-01T17:07:56.247Z,32.10
2017-08-01T17:10:31.469Z,31.80
2017-08-01T17:13:07.517Z,31.40
2017-08-01T17:15:49.932Z,31.40
2017-08-01T17:18:25.158Z,31.30
2017-08-01T17:20:59.073Z,31.10
2017-08-01T17:23:33.791Z,30.90
2017-08-01T17:26:07.818Z,30.90
2017-08-01T17:28:45.558Z,30.90
2017-08-01T17:31:20.257Z,30.70
2017-08-01T17:33:54.894Z,30.60
2017-08-01T17:36:29.587Z,30.60
2017-08-01T17:39:04.255Z,30.50
2017-08-01T17:41:38.847Z,30.30
2017-08-01T17:44:12.868Z,30.20
2017-08-01T17:46:48.523Z,30.10
2017-08-01T17:49:22.504Z,29.90
2017-08-01T17:51:56.668Z,29.80
2017-08-01T17:54:30.857Z,29.70
2017-08-01T17:57:06.510Z,29.60
2017-08-01T17:59:41.149Z,29.60
2017-08-01T18:02:15.908Z,29.70
2017-08-01T18:04:50.705Z,29.70
2017-08-01T18:07:25.544Z,29.70
2017-08-01T18:09:59.510Z,29.70
2017-08-01T18:15:16.217Z,29.60
2017-08-01T18:17:50.481Z,29.20
2017-08-01T18:20:24.379Z,28.50
2017-08-01T18:22:59.211Z,28.40
2017-08-01T18:25:33.145Z,28.40
2017-08-01T18:28:07.263Z,28.40
2017-08-01T18:30:42.338Z,28.30
2017-08-01T18:33:16.307Z,28.20
2017-08-01T18:35:50.339Z,28.20
2017-08-01T18:38:25.096Z,28.10
2017-08-01T18:40:59.136Z,28.00
2017-08-01T18:43:33.641Z,27.80
2017-08-01T18:46:08.668Z,27.50
2017-08-01T18:48:44.227Z,27.20
2017-08-01T18:51:17.951Z,27.00
2017-08-01T18:53:51.590Z,26.60
2017-08-01T18:56:25.585Z,26.20
2017-08-01T18:58:59.686Z,26.00
2017-08-01T19:01:33.618Z,26.00
2017-08-01T19:04:08.167Z,24.90
2017-08-01T19:06:42.049Z,24.90
2017-08-01T19:09:15.942Z,23.70
2017-08-01T19:11:49.995Z,23.40
2017-08-01T19:14:24.287Z,22.40
2017-08-01T19:16:58.510Z,22.60
2017-08-01T19:19:32.598Z,22.80
2017-08-01T19:22:06.734Z,21.80
2017-08-01T19:24:40.857Z,20.70
2017-08-01T19:27:15.393Z,20.50
2017-08-01T19:29:50.909Z,20.80
2017-08-01T19:32:25.342Z,21.70
2017-08-01T19:34:59.279Z,21.70
2017-08-01T19:37:34.252Z,23.20
2017-08-01T19:40:12.200Z,24.20
2017-08-01T19:42:46.075Z,24.20
2017-08-01T19:45:20.660Z,24.40
2017-08-01T19:47:55.333Z,24.40
2017-08-01T19:50:36.977Z,23.80
2017-08-01T19:53:10.826Z,23.80
2017-08-01T19:55:49.192Z,23.70
2017-08-01T19:58:24.043Z,23.60
2017-08-01T20:01:01.124Z,23.60
2017-08-01T20:03:36.177Z,23.70
2017-08-01T20:06:10.949Z,22.90
2017-08-01T20:08:47.393Z,21.60
2017-08-01T20:11:24.339Z,21.00
2017-08-01T20:16:42.170Z,21.00
2017-08-01T20:19:15.884Z,21.00
2017-08-01T20:21:50.764Z,21.60
2017-08-01T20:24:24.826Z,22.10
2017-08-01T20:26:58.608Z,21.90
2017-08-01T20:29:32.357Z,22.10
2017-08-01T20:32:08.955Z,22.10
2017-08-01T20:34:44.575Z,22.50
2017-08-01T20:37:18.555Z,22.70
2017-08-01T20:39:52.437Z,23.20
2017-08-01T20:45:23.315Z,23.50
2017-08-01T20:47:57.910Z,22.60
2017-08-01T20:50:32.604Z,22.60
2017-08-01T20:53:07.503Z,22.70
2017-08-01T20:55:42.146Z,22.80
2017-08-01T20:58:16.651Z,23.00
2017-08-01T21:00:54.002Z,22.90
2017-08-01T21:03:27.935Z,22.70
2017-08-01T21:06:02.144Z,23.00
2017-08-01T21:08:36.353Z,23.00
2017-08-01T21:11:12.233Z,22.90
2017-08-01T21:13:52.005Z,22.80
2017-08-01T21:16:27.410Z,22.40
2017-08-01T21:19:01.183Z,22.40
2017-08-01T21:21:36.171Z,21.90
2017-08-01T21:24:10.046Z,21.60
2017-08-01T21:26:44.834Z,22.10
2017-08-01T21:29:21.244Z,22.30
2017-08-01T21:31:57.516Z,22.30
2017-08-01T21:34:32.580Z,22.50
2017-08-01T21:37:06.333Z,22.50
2017-08-01T21:39:41.046Z,22.70
2017-08-01T21:42:19.290Z,22.70
2017-08-01T21:44:53.843Z,22.60
2017-08-01T21:47:28.685Z,22.60
2017-08-01T21:50:02.586Z,22.60
2017-08-01T21:52:38.179Z,22.60
2017-08-01T21:58:10.214Z,22.40
2017-08-01T22:00:52.340Z,22.30
2017-08-01T22:03:35.819Z,22.30
2017-08-01T22:06:09.998Z,22.40
2017-08-01T22:08:46.137Z,22.30
2017-08-01T22:11:20.764Z,22.30
2017-08-01T22:16:39.427Z,22.20
2017-08-01T22:19:13.210Z,22.20
2017-08-01T22:21:47.779Z,22.20
2017-08-01T22:24:23.086Z,22.20
2017-08-01T22:26:56.963Z,22.20
2017-08-01T22:29:30.701Z,22.00
2017-08-01T22:32:05.195Z,21.90
2017-08-01T22:34:39.126Z,21.90
2017-08-01T22:37:13.145Z,22.00
2017-08-01T22:39:46.923Z,21.90
2017-08-01T22:42:20.778Z,21.50
2017-08-01T22:44:54.503Z,21.70
2017-08-01T22:47:29.150Z,21.70
2017-08-01T22:50:03.736Z,21.60
2017-08-01T22:52:37.496Z,21.60
2017-08-01T22:55:11.263Z,21.70
2017-08-01T22:57:45.714Z,21.50
2017-08-01T23:00:19.389Z,21.50
2017-08-01T23:02:53.210Z,21.60
2017-08-01T23:05:27.459Z,21.80
2017-08-01T23:08:01.270Z,21.80
2017-08-01T23:10:35.790Z,21.70
2017-08-01T23:13:09.646Z,21.70
2017-08-01T23:15:43.857Z,21.50
2017-08-01T23:18:17.639Z,21.50
2017-08-01T23:20:51.468Z,21.30
2017-08-01T23:23:25.367Z,21.20
2017-08-01T23:25:59.288Z,21.20
2017-08-01T23:28:33.819Z,21.30
2017-08-01T23:31:07.628Z,21.40
2017-08-01T23:33:42.171Z,20.60
2017-08-01T23:36:16.716Z,20.60
2017-08-01T23:38:50.548Z,20.80
2017-08-01T23:41:24.402Z,21.00
2017-08-01T23:43:58.927Z,20.90
2017-08-01T23:46:33.663Z,20.90
2017-08-01T23:49:07.290Z,20.80
2017-08-01T23:51:41.159Z,21.10
2017-08-01T23:54:15.104Z,21.20
2017-08-01T23:56:49.362Z,21.30
2017-08-01T23:59:23.305Z,21.40
